sensor_id;sensor_type;location;lat;lon;timestamp;P1;durP1;ratioP1;P2;durP2;ratioP2
40931;SDS011;36257;46.052;12.540;2022-09-19T00:01:09;5.07;;;3.15;;
40931;SDS011;36257;46.052;12.540;2022-09-19T00:03:38;4.88;;;3.17;;
40931;SDS011;36257;46.052;12.540;2022-09-19T00:06:06;3.15;;;2.83;;
40931;SDS011;36257;46.052;12.540;2022-09-19T00:08:32;4.97;;;3.00;;
40931;SDS011;36257;46.052;12.540;2022-09-19T00:11:01;6.75;;;3.30;;
40931;SDS011;36257;46.052;12.540;2022-09-19T00:13:28;4.70;;;2.65;;
40931;SDS011;36257;46.052;12.540;2022-09-19T00:15:55;3.38;;;2.88;;
40931;SDS011;36257;46.052;12.540;2022-09-19T00:18:21;3.90;;;2.40;;
40931;SDS011;36257;46.052;12.540;2022-09-19T00:20:47;2.88;;;2.47;;
40931;SDS011;36257;46.052;12.540;2022-09-19T00:23:14;5.45;;;3.13;;
40931;SDS011;36257;46.052;12.540;2022-09-19T00:26:00;4.35;;;2.70;;
40931;SDS011;36257;46.052;12.540;2022-09-19T00:28:28;3.58;;;3.20;;
40931;SDS011;36257;46.052;12.540;2022-09-19T00:30:55;4.88;;;3.10;;
40931;SDS011;36257;46.052;12.540;2022-09-19T00:33:22;5.13;;;3.50;;
40931;SDS011;36257;46.052;12.540;2022-09-19T00:35:52;6.93;;;3.30;;
40931;SDS011;36257;46.052;12.540;2022-09-19T00:38:22;4.30;;;3.20;;
40931;SDS011;36257;46.052;12.540;2022-09-19T00:40:49;3.83;;;2.97;;
40931;SDS011;36257;46.052;12.540;2022-09-19T00:43:15;2.90;;;2.70;;
40931;SDS011;36257;46.052;12.540;2022-09-19T00:45:43;3.60;;;2.63;;
40931;SDS011;36257;46.052;12.540;2022-09-19T00:48:10;3.30;;;2.80;;
40931;SDS011;36257;46.052;12.540;2022-09-19T00:50:38;4.75;;;2.42;;
40931;SDS011;36257;46.052;12.540;2022-09-19T00:53:06;3.35;;;3.05;;
40931;SDS011;36257;46.052;12.540;2022-09-19T00:55:34;5.97;;;3.85;;
40931;SDS011;36257;46.052;12.540;2022-09-19T00:58:15;4.38;;;3.60;;
40931;SDS011;36257;46.052;12.540;2022-09-19T01:00:44;5.72;;;4.10;;
40931;SDS011;36257;46.052;12.540;2022-09-19T01:03:10;4.43;;;3.40;;
40931;SDS011;36257;46.052;12.540;2022-09-19T01:08:50;7.88;;;3.63;;
40931;SDS011;36257;46.052;12.540;2022-09-19T01:16:48;4.55;;;2.92;;
40931;SDS011;36257;46.052;12.540;2022-09-19T01:19:20;3.58;;;2.55;;
40931;SDS011;36257;46.052;12.540;2022-09-19T01:22:05;3.45;;;2.83;;
40931;SDS011;36257;46.052;12.540;2022-09-19T01:27:41;4.43;;;3.13;;
40931;SDS011;36257;46.052;12.540;2022-09-19T01:30:21;5.72;;;3.13;;
40931;SDS011;36257;46.052;12.540;2022-09-19T01:35:28;3.40;;;3.10;;
40931;SDS011;36257;46.052;12.540;2022-09-19T01:37:58;5.93;;;3.75;;
40931;SDS011;36257;46.052;12.540;2022-09-19T01:40:29;3.72;;;3.38;;
40931;SDS011;36257;46.052;12.540;2022-09-19T01:42:56;5.35;;;3.05;;
40931;SDS011;36257;46.052;12.540;2022-09-19T01:45:24;8.20;;;3.22;;
40931;SDS011;36257;46.052;12.540;2022-09-19T01:59:13;4.22;;;2.83;;
40931;SDS011;36257;46.052;12.540;2022-09-19T02:02:11;3.42;;;2.50;;
40931;SDS011;36257;46.052;12.540;2022-09-19T02:05:12;2.65;;;2.45;;
40931;SDS011;36257;46.052;12.540;2022-09-19T02:10:47;2.25;;;1.98;;
40931;SDS011;36257;46.052;12.540;2022-09-19T02:13:20;3.97;;;1.70;;
40931;SDS011;36257;46.052;12.540;2022-09-19T02:15:50;1.50;;;1.40;;
40931;SDS011;36257;46.052;12.540;2022-09-19T02:18:28;2.15;;;1.92;;
40931;SDS011;36257;46.052;12.540;2022-09-19T02:21:04;2.33;;;1.80;;
40931;SDS011;36257;46.052;12.540;2022-09-19T02:23:34;2.38;;;1.80;;
40931;SDS011;36257;46.052;12.540;2022-09-19T02:26:05;2.05;;;1.85;;
40931;SDS011;36257;46.052;12.540;2022-09-19T02:28:36;2.00;;;1.88;;
40931;SDS011;36257;46.052;12.540;2022-09-19T02:31:04;1.88;;;1.77;;
40931;SDS011;36257;46.052;12.540;2022-09-19T02:33:31;2.38;;;1.85;;
40931;SDS011;36257;46.052;12.540;2022-09-19T02:36:12;2.55;;;1.90;;
40931;SDS011;36257;46.052;12.540;2022-09-19T02:49:39;2.03;;;1.65;;
40931;SDS011;36257;46.052;12.540;2022-09-19T02:52:17;3.17;;;1.83;;
40931;SDS011;36257;46.052;12.540;2022-09-19T02:54:49;1.88;;;1.70;;
40931;SDS011;36257;46.052;12.540;2022-09-19T02:57:19;3.22;;;1.33;;
40931;SDS011;36257;46.052;12.540;2022-09-19T02:59:49;1.83;;;1.73;;
40931;SDS011;36257;46.052;12.540;2022-09-19T03:02:21;2.03;;;1.88;;
40931;SDS011;36257;46.052;12.540;2022-09-19T03:04:51;3.05;;;1.90;;
40931;SDS011;36257;46.052;12.540;2022-09-19T03:07:26;4.50;;;1.80;;
40931;SDS011;36257;46.052;12.540;2022-09-19T03:12:41;2.63;;;1.60;;
40931;SDS011;36257;46.052;12.540;2022-09-19T03:15:12;1.65;;;1.55;;
40931;SDS011;36257;46.052;12.540;2022-09-19T03:17:40;2.58;;;2.22;;
40931;SDS011;36257;46.052;12.540;2022-09-19T03:20:08;4.35;;;2.15;;
40931;SDS011;36257;46.052;12.540;2022-09-19T03:22:39;3.97;;;2.72;;
40931;SDS011;36257;46.052;12.540;2022-09-19T03:25:09;3.83;;;2.25;;
40931;SDS011;36257;46.052;12.540;2022-09-19T03:27:35;5.00;;;2.30;;
40931;SDS011;36257;46.052;12.540;2022-09-19T03:30:05;2.42;;;2.17;;
40931;SDS011;36257;46.052;12.540;2022-09-19T03:32:33;2.45;;;2.15;;
40931;SDS011;36257;46.052;12.540;2022-09-19T03:35:03;2.28;;;2.08;;
40931;SDS011;36257;46.052;12.540;2022-09-19T03:37:32;4.10;;;2.40;;
40931;SDS011;36257;46.052;12.540;2022-09-19T03:39:59;3.55;;;2.42;;
40931;SDS011;36257;46.052;12.540;2022-09-19T03:42:25;3.78;;;2.35;;
40931;SDS011;36257;46.052;12.540;2022-09-19T03:44:52;3.13;;;2.17;;
40931;SDS011;36257;46.052;12.540;2022-09-19T03:47:18;3.67;;;2.00;;
40931;SDS011;36257;46.052;12.540;2022-09-19T03:49:45;2.63;;;2.40;;
40931;SDS011;36257;46.052;12.540;2022-09-19T03:52:11;3.60;;;2.35;;
40931;SDS011;36257;46.052;12.540;2022-09-19T03:54:37;2.60;;;2.40;;
40931;SDS011;36257;46.052;12.540;2022-09-19T03:57:03;5.20;;;2.67;;
40931;SDS011;36257;46.052;12.540;2022-09-19T03:59:29;2.15;;;2.03;;
40931;SDS011;36257;46.052;12.540;2022-09-19T04:01:55;2.45;;;2.15;;
40931;SDS011;36257;46.052;12.540;2022-09-19T04:04:23;2.22;;;2.05;;
40931;SDS011;36257;46.052;12.540;2022-09-19T04:06:48;2.60;;;2.40;;
40931;SDS011;36257;46.052;12.540;2022-09-19T04:09:14;2.92;;;1.80;;
40931;SDS011;36257;46.052;12.540;2022-09-19T04:11:40;2.30;;;2.10;;
40931;SDS011;36257;46.052;12.540;2022-09-19T04:14:06;1.88;;;1.77;;
40931;SDS011;36257;46.052;12.540;2022-09-19T04:16:34;2.17;;;1.98;;
40931;SDS011;36257;46.052;12.540;2022-09-19T04:19:00;3.38;;;2.10;;
40931;SDS011;36257;46.052;12.540;2022-09-19T04:21:25;3.55;;;2.17;;
40931;SDS011;36257;46.052;12.540;2022-09-19T04:23:51;2.00;;;1.83;;
40931;SDS011;36257;46.052;12.540;2022-09-19T04:26:19;3.55;;;2.15;;
40931;SDS011;36257;46.052;12.540;2022-09-19T04:28:46;3.13;;;2.25;;
40931;SDS011;36257;46.052;12.540;2022-09-19T04:31:12;2.40;;;1.90;;
40931;SDS011;36257;46.052;12.540;2022-09-19T04:33:38;3.42;;;1.98;;
40931;SDS011;36257;46.052;12.540;2022-09-19T04:36:05;2.30;;;1.83;;
40931;SDS011;36257;46.052;12.540;2022-09-19T04:40:58;3.25;;;1.75;;
40931;SDS011;36257;46.052;12.540;2022-09-19T04:43:25;2.63;;;2.00;;
40931;SDS011;36257;46.052;12.540;2022-09-19T04:45:54;4.53;;;2.00;;
40931;SDS011;36257;46.052;12.540;2022-09-19T04:48:21;2.20;;;2.00;;
40931;SDS011;36257;46.052;12.540;2022-09-19T04:50:48;2.35;;;2.15;;
40931;SDS011;36257;46.052;12.540;2022-09-19T04:53:16;3.33;;;2.47;;
40931;SDS011;36257;46.052;12.540;2022-09-19T04:55:46;2.90;;;2.20;;
40931;SDS011;36257;46.052;12.540;2022-09-19T04:58:16;2.53;;;2.17;;
40931;SDS011;36257;46.052;12.540;2022-09-19T05:00:49;2.92;;;2.25;;
40931;SDS011;36257;46.052;12.540;2022-09-19T05:03:17;2.55;;;2.35;;
40931;SDS011;36257;46.052;12.540;2022-09-19T05:05:44;2.75;;;2.55;;
40931;SDS011;36257;46.052;12.540;2022-09-19T05:08:15;2.28;;;2.08;;
40931;SDS011;36257;46.052;12.540;2022-09-19T05:10:45;2.67;;;1.95;;
40931;SDS011;36257;46.052;12.540;2022-09-19T05:13:12;3.60;;;2.17;;
40931;SDS011;36257;46.052;12.540;2022-09-19T05:15:38;3.88;;;2.13;;
40931;SDS011;36257;46.052;12.540;2022-09-19T05:18:06;2.92;;;2.38;;
40931;SDS011;36257;46.052;12.540;2022-09-19T05:20:38;3.85;;;2.33;;
40931;SDS011;36257;46.052;12.540;2022-09-19T05:23:04;2.63;;;2.42;;
40931;SDS011;36257;46.052;12.540;2022-09-19T05:25:35;2.22;;;2.08;;
40931;SDS011;36257;46.052;12.540;2022-09-19T05:28:02;3.03;;;2.58;;
40931;SDS011;36257;46.052;12.540;2022-09-19T05:30:30;4.90;;;2.47;;
40931;SDS011;36257;46.052;12.540;2022-09-19T05:32:57;2.30;;;2.10;;
40931;SDS011;36257;46.052;12.540;2022-09-19T05:37:51;2.58;;;2.25;;
40931;SDS011;36257;46.052;12.540;2022-09-19T05:40:16;4.10;;;2.40;;
40931;SDS011;36257;46.052;12.540;2022-09-19T05:42:43;2.67;;;2.40;;
40931;SDS011;36257;46.052;12.540;2022-09-19T05:45:15;3.10;;;2.20;;
40931;SDS011;36257;46.052;12.540;2022-09-19T05:47:42;2.92;;;1.77;;
40931;SDS011;36257;46.052;12.540;2022-09-19T05:50:08;2.08;;;1.85;;
40931;SDS011;36257;46.052;12.540;2022-09-19T05:52:36;1.98;;;1.80;;
40931;SDS011;36257;46.052;12.540;2022-09-19T05:55:21;2.63;;;2.20;;
40931;SDS011;36257;46.052;12.540;2022-09-19T05:57:54;2.15;;;1.95;;
40931;SDS011;36257;46.052;12.540;2022-09-19T06:00:21;3.65;;;1.85;;
40931;SDS011;36257;46.052;12.540;2022-09-19T06:05:18;2.08;;;1.95;;
40931;SDS011;36257;46.052;12.540;2022-09-19T06:07:43;6.50;;;1.90;;
40931;SDS011;36257;46.052;12.540;2022-09-19T06:10:09;2.20;;;2.00;;
40931;SDS011;36257;46.052;12.540;2022-09-19T06:12:34;1.90;;;1.80;;
40931;SDS011;36257;46.052;12.540;2022-09-19T06:15:00;2.80;;;2.05;;
40931;SDS011;36257;46.052;12.540;2022-09-19T06:17:26;3.22;;;1.80;;
40931;SDS011;36257;46.052;12.540;2022-09-19T06:19:52;3.17;;;1.83;;
40931;SDS011;36257;46.052;12.540;2022-09-19T06:22:18;3.58;;;1.65;;
40931;SDS011;36257;46.052;12.540;2022-09-19T06:24:43;1.80;;;1.70;;
40931;SDS011;36257;46.052;12.540;2022-09-19T06:27:09;2.90;;;1.65;;
40931;SDS011;36257;46.052;12.540;2022-09-19T06:29:34;4.35;;;1.98;;
40931;SDS011;36257;46.052;12.540;2022-09-19T06:32:01;2.97;;;2.15;;
40931;SDS011;36257;46.052;12.540;2022-09-19T06:34:27;3.60;;;2.92;;
40931;SDS011;36257;46.052;12.540;2022-09-19T06:36:53;3.35;;;3.05;;
40931;SDS011;36257;46.052;12.540;2022-09-19T06:39:18;3.00;;;2.75;;
40931;SDS011;36257;46.052;12.540;2022-09-19T06:41:44;3.53;;;2.67;;
40931;SDS011;36257;46.052;12.540;2022-09-19T06:44:12;4.05;;;2.88;;
40931;SDS011;36257;46.052;12.540;2022-09-19T06:46:38;3.00;;;2.70;;
40931;SDS011;36257;46.052;12.540;2022-09-19T06:49:04;5.03;;;2.80;;
40931;SDS011;36257;46.052;12.540;2022-09-19T06:51:32;3.90;;;2.78;;
40931;SDS011;36257;46.052;12.540;2022-09-19T06:53:58;3.40;;;2.10;;
40931;SDS011;36257;46.052;12.540;2022-09-19T06:56:24;5.13;;;2.38;;
40931;SDS011;36257;46.052;12.540;2022-09-19T06:58:49;2.70;;;1.75;;
40931;SDS011;36257;46.052;12.540;2022-09-19T07:01:15;2.67;;;2.03;;
40931;SDS011;36257;46.052;12.540;2022-09-19T07:03:42;3.10;;;1.67;;
40931;SDS011;36257;46.052;12.540;2022-09-19T07:06:07;4.03;;;1.73;;
40931;SDS011;36257;46.052;12.540;2022-09-19T07:08:33;4.05;;;2.33;;
40931;SDS011;36257;46.052;12.540;2022-09-19T07:10:58;2.38;;;2.17;;
40931;SDS011;36257;46.052;12.540;2022-09-19T07:13:24;4.05;;;2.30;;
40931;SDS011;36257;46.052;12.540;2022-09-19T07:15:50;3.08;;;2.45;;
40931;SDS011;36257;46.052;12.540;2022-09-19T07:18:16;3.60;;;2.42;;
40931;SDS011;36257;46.052;12.540;2022-09-19T07:20:41;2.50;;;1.90;;
40931;SDS011;36257;46.052;12.540;2022-09-19T07:25:40;1.52;;;1.42;;
40931;SDS011;36257;46.052;12.540;2022-09-19T07:28:08;2.42;;;1.88;;
40931;SDS011;36257;46.052;12.540;2022-09-19T07:30:36;3.30;;;1.63;;
40931;SDS011;36257;46.052;12.540;2022-09-19T07:33:04;4.13;;;1.98;;
40931;SDS011;36257;46.052;12.540;2022-09-19T07:35:32;3.75;;;2.28;;
40931;SDS011;36257;46.052;12.540;2022-09-19T07:37:59;1.10;;;1.00;;
40931;SDS011;36257;46.052;12.540;2022-09-19T07:40:26;3.83;;;1.97;;
40931;SDS011;36257;46.052;12.540;2022-09-19T07:42:57;3.30;;;1.85;;
40931;SDS011;36257;46.052;12.540;2022-09-19T07:45:33;3.72;;;1.50;;
40931;SDS011;36257;46.052;12.540;2022-09-19T07:48:01;2.25;;;1.70;;
40931;SDS011;36257;46.052;12.540;2022-09-19T07:50:28;2.90;;;2.03;;
40931;SDS011;36257;46.052;12.540;2022-09-19T07:53:01;3.85;;;1.80;;
40931;SDS011;36257;46.052;12.540;2022-09-19T07:55:49;3.05;;;1.67;;
40931;SDS011;36257;46.052;12.540;2022-09-19T07:58:20;1.75;;;1.35;;
40931;SDS011;36257;46.052;12.540;2022-09-19T08:00:47;2.88;;;1.98;;
40931;SDS011;36257;46.052;12.540;2022-09-19T08:03:15;2.72;;;1.52;;
40931;SDS011;36257;46.052;12.540;2022-09-19T08:05:46;3.20;;;1.50;;
40931;SDS011;36257;46.052;12.540;2022-09-19T08:08:14;4.25;;;1.85;;
40931;SDS011;36257;46.052;12.540;2022-09-19T08:13:07;2.67;;;1.75;;
40931;SDS011;36257;46.052;12.540;2022-09-19T08:15:34;2.90;;;1.48;;
40931;SDS011;36257;46.052;12.540;2022-09-19T08:18:02;4.43;;;1.70;;
40931;SDS011;36257;46.052;12.540;2022-09-19T08:22:56;1.65;;;1.40;;
40931;SDS011;36257;46.052;12.540;2022-09-19T08:25:27;2.55;;;1.90;;
40931;SDS011;36257;46.052;12.540;2022-09-19T08:27:54;2.25;;;1.85;;
40931;SDS011;36257;46.052;12.540;2022-09-19T08:30:23;3.95;;;1.70;;
40931;SDS011;36257;46.052;12.540;2022-09-19T08:32:50;3.63;;;1.60;;
40931;SDS011;36257;46.052;12.540;2022-09-19T08:35:17;2.83;;;1.67;;
40931;SDS011;36257;46.052;12.540;2022-09-19T08:37:44;3.20;;;1.98;;
40931;SDS011;36257;46.052;12.540;2022-09-19T08:40:54;2.05;;;1.50;;
40931;SDS011;36257;46.052;12.540;2022-09-19T08:46:15;2.45;;;1.50;;
40931;SDS011;36257;46.052;12.540;2022-09-19T08:51:19;2.95;;;1.15;;
40931;SDS011;36257;46.052;12.540;2022-09-19T08:56:52;1.65;;;1.50;;
40931;SDS011;36257;46.052;12.540;2022-09-19T08:59:22;2.83;;;1.15;;
40931;SDS011;36257;46.052;12.540;2022-09-19T09:01:50;1.80;;;1.65;;
40931;SDS011;36257;46.052;12.540;2022-09-19T09:04:29;2.05;;;1.80;;
40931;SDS011;36257;46.052;12.540;2022-09-19T09:07:07;2.83;;;1.52;;
40931;SDS011;36257;46.052;12.540;2022-09-19T09:09:41;3.22;;;1.48;;
40931;SDS011;36257;46.052;12.540;2022-09-19T09:23:32;2.45;;;0.95;;
40931;SDS011;36257;46.052;12.540;2022-09-19T09:26:02;2.10;;;1.08;;
40931;SDS011;36257;46.052;12.540;2022-09-19T09:31:03;2.17;;;1.00;;
40931;SDS011;36257;46.052;12.540;2022-09-19T09:34:06;2.05;;;0.88;;
40931;SDS011;36257;46.052;12.540;2022-09-19T09:36:42;2.75;;;1.00;;
40931;SDS011;36257;46.052;12.540;2022-09-19T09:39:30;1.30;;;0.60;;
40931;SDS011;36257;46.052;12.540;2022-09-19T09:42:24;2.28;;;0.65;;
40931;SDS011;36257;46.052;12.540;2022-09-19T09:48:20;1.73;;;0.45;;
40931;SDS011;36257;46.052;12.540;2022-09-19T09:57:02;0.47;;;0.30;;
40931;SDS011;36257;46.052;12.540;2022-09-19T09:59:39;1.05;;;0.50;;
40931;SDS011;36257;46.052;12.540;2022-09-19T10:05:48;1.40;;;0.70;;
40931;SDS011;36257;46.052;12.540;2022-09-19T10:08:19;2.92;;;1.58;;
40931;SDS011;36257;46.052;12.540;2022-09-19T10:13:52;1.17;;;0.80;;
40931;SDS011;36257;46.052;12.540;2022-09-19T10:16:27;2.75;;;0.80;;
40931;SDS011;36257;46.052;12.540;2022-09-19T10:19:00;1.33;;;0.73;;
40931;SDS011;36257;46.052;12.540;2022-09-19T10:21:51;2.80;;;0.70;;
40931;SDS011;36257;46.052;12.540;2022-09-19T10:27:14;1.85;;;0.52;;
40931;SDS011;36257;46.052;12.540;2022-09-19T10:29:56;1.23;;;0.43;;
40931;SDS011;36257;46.052;12.540;2022-09-19T10:32:26;1.58;;;0.70;;
40931;SDS011;36257;46.052;12.540;2022-09-19T10:38:05;1.08;;;0.40;;
40931;SDS011;36257;46.052;12.540;2022-09-19T10:41:00;0.88;;;0.40;;
40931;SDS011;36257;46.052;12.540;2022-09-19T10:43:40;0.63;;;0.32;;
40931;SDS011;36257;46.052;12.540;2022-09-19T10:46:15;2.05;;;0.55;;
40931;SDS011;36257;46.052;12.540;2022-09-19T10:48:48;3.03;;;0.68;;
40931;SDS011;36257;46.052;12.540;2022-09-19T10:51:18;2.00;;;0.50;;
40931;SDS011;36257;46.052;12.540;2022-09-19T10:53:45;0.70;;;0.55;;
40931;SDS011;36257;46.052;12.540;2022-09-19T10:56:24;0.88;;;0.45;;
40931;SDS011;36257;46.052;12.540;2022-09-19T10:59:00;0.82;;;0.50;;
40931;SDS011;36257;46.052;12.540;2022-09-19T11:01:32;1.50;;;0.68;;
40931;SDS011;36257;46.052;12.540;2022-09-19T11:06:29;0.50;;;0.50;;
40931;SDS011;36257;46.052;12.540;2022-09-19T11:08:55;0.90;;;0.50;;
40931;SDS011;36257;46.052;12.540;2022-09-19T11:11:26;1.13;;;0.38;;
40931;SDS011;36257;46.052;12.540;2022-09-19T11:25:29;2.55;;;0.47;;
40931;SDS011;36257;46.052;12.540;2022-09-19T11:34:09;2.95;;;0.70;;
40931;SDS011;36257;46.052;12.540;2022-09-19T11:42:56;2.05;;;0.60;;
40931;SDS011;36257;46.052;12.540;2022-09-19T11:48:40;0.73;;;0.57;;
40931;SDS011;36257;46.052;12.540;2022-09-19T11:56:39;0.85;;;0.30;;
40931;SDS011;36257;46.052;12.540;2022-09-19T11:59:24;0.75;;;0.43;;
40931;SDS011;36257;46.052;12.540;2022-09-19T12:07:31;3.25;;;0.55;;
40931;SDS011;36257;46.052;12.540;2022-09-19T12:12:41;2.70;;;0.60;;
40931;SDS011;36257;46.052;12.540;2022-09-19T12:15:23;1.67;;;0.50;;
40931;SDS011;36257;46.052;12.540;2022-09-19T12:17:56;1.05;;;0.40;;
40931;SDS011;36257;46.052;12.540;2022-09-19T12:20:27;2.33;;;0.30;;
40931;SDS011;36257;46.052;12.540;2022-09-19T12:23:12;5.22;;;0.60;;
40931;SDS011;36257;46.052;12.540;2022-09-19T12:26:01;4.15;;;0.40;;
40931;SDS011;36257;46.052;12.540;2022-09-19T12:28:35;1.75;;;0.47;;
40931;SDS011;36257;46.052;12.540;2022-09-19T12:31:06;4.93;;;0.60;;
40931;SDS011;36257;46.052;12.540;2022-09-19T12:39:07;3.38;;;0.90;;
40931;SDS011;36257;46.052;12.540;2022-09-19T12:41:55;1.30;;;0.47;;
40931;SDS011;36257;46.052;12.540;2022-09-19T12:52:33;3.22;;;0.50;;
40931;SDS011;36257;46.052;12.540;2022-09-19T13:00:17;1.15;;;0.60;;
40931;SDS011;36257;46.052;12.540;2022-09-19T13:02:50;1.73;;;0.35;;
40931;SDS011;36257;46.052;12.540;2022-09-19T13:05:35;1.52;;;0.55;;
40931;SDS011;36257;46.052;12.540;2022-09-19T13:08:03;2.17;;;0.40;;
40931;SDS011;36257;46.052;12.540;2022-09-19T13:10:39;1.00;;;0.40;;
40931;SDS011;36257;46.052;12.540;2022-09-19T13:16:00;1.52;;;0.45;;
40931;SDS011;36257;46.052;12.540;2022-09-19T13:18:42;1.63;;;0.47;;
40931;SDS011;36257;46.052;12.540;2022-09-19T13:21:35;2.17;;;0.55;;
40931;SDS011;36257;46.052;12.540;2022-09-19T13:24:22;1.58;;;0.50;;
40931;SDS011;36257;46.052;12.540;2022-09-19T13:27:15;0.98;;;0.50;;
40931;SDS011;36257;46.052;12.540;2022-09-19T13:29:43;2.83;;;0.60;;
40931;SDS011;36257;46.052;12.540;2022-09-19T13:35:17;2.00;;;0.45;;
40931;SDS011;36257;46.052;12.540;2022-09-19T13:37:48;0.95;;;0.60;;
40931;SDS011;36257;46.052;12.540;2022-09-19T13:43:03;0.88;;;0.60;;
40931;SDS011;36257;46.052;12.540;2022-09-19T13:56:26;2.20;;;0.40;;
40931;SDS011;36257;46.052;12.540;2022-09-19T14:01:38;1.17;;;1.08;;
40931;SDS011;36257;46.052;12.540;2022-09-19T14:04:15;1.35;;;0.38;;
40931;SDS011;36257;46.052;12.540;2022-09-19T14:07:00;0.75;;;0.40;;
40931;SDS011;36257;46.052;12.540;2022-09-19T14:09:35;1.77;;;0.47;;
40931;SDS011;36257;46.052;12.540;2022-09-19T14:12:47;3.47;;;0.47;;
40931;SDS011;36257;46.052;12.540;2022-09-19T14:16:03;2.17;;;0.30;;
40931;SDS011;36257;46.052;12.540;2022-09-19T14:48:25;4.20;;;0.90;;
40931;SDS011;36257;46.052;12.540;2022-09-19T14:51:12;1.92;;;0.50;;
40931;SDS011;36257;46.052;12.540;2022-09-19T14:53:44;3.03;;;0.60;;
40931;SDS011;36257;46.052;12.540;2022-09-19T14:56:14;2.28;;;0.50;;
40931;SDS011;36257;46.052;12.540;2022-09-19T14:58:48;1.27;;;0.43;;
40931;SDS011;36257;46.052;12.540;2022-09-19T15:01:15;0.75;;;0.40;;
40931;SDS011;36257;46.052;12.540;2022-09-19T15:04:00;2.30;;;0.38;;
40931;SDS011;36257;46.052;12.540;2022-09-19T15:06:52;0.70;;;0.50;;
40931;SDS011;36257;46.052;12.540;2022-09-19T15:11:57;1.42;;;1.33;;
40931;SDS011;36257;46.052;12.540;2022-09-19T15:14:26;1.02;;;0.68;;
40931;SDS011;36257;46.052;12.540;2022-09-19T15:17:11;2.83;;;0.93;;
40931;SDS011;36257;46.052;12.540;2022-09-19T15:19:51;0.68;;;0.50;;
40931;SDS011;36257;46.052;12.540;2022-09-19T15:22:25;1.30;;;0.77;;
40931;SDS011;36257;46.052;12.540;2022-09-19T15:25:06;1.30;;;0.60;;
40931;SDS011;36257;46.052;12.540;2022-09-19T15:27:47;2.22;;;0.50;;
40931;SDS011;36257;46.052;12.540;2022-09-19T15:30:20;1.35;;;0.57;;
40931;SDS011;36257;46.052;12.540;2022-09-19T15:33:09;2.20;;;0.65;;
40931;SDS011;36257;46.052;12.540;2022-09-19T15:35:36;3.97;;;0.85;;
40931;SDS011;36257;46.052;12.540;2022-09-19T15:38:08;1.58;;;0.70;;
40931;SDS011;36257;46.052;12.540;2022-09-19T15:40:40;1.13;;;0.70;;
40931;SDS011;36257;46.052;12.540;2022-09-19T15:43:06;1.27;;;0.60;;
40931;SDS011;36257;46.052;12.540;2022-09-19T15:45:39;3.05;;;0.45;;
40931;SDS011;36257;46.052;12.540;2022-09-19T15:48:10;2.97;;;0.70;;
40931;SDS011;36257;46.052;12.540;2022-09-19T15:50:41;3.03;;;0.60;;
40931;SDS011;36257;46.052;12.540;2022-09-19T15:53:19;2.38;;;0.68;;
40931;SDS011;36257;46.052;12.540;2022-09-19T15:58:34;1.55;;;0.90;;
40931;SDS011;36257;46.052;12.540;2022-09-19T16:04:07;2.55;;;0.70;;
40931;SDS011;36257;46.052;12.540;2022-09-19T16:06:43;2.92;;;0.85;;
40931;SDS011;36257;46.052;12.540;2022-09-19T16:09:35;3.08;;;0.60;;
40931;SDS011;36257;46.052;12.540;2022-09-19T16:12:03;0.85;;;0.55;;
40931;SDS011;36257;46.052;12.540;2022-09-19T16:14:57;1.52;;;0.82;;
40931;SDS011;36257;46.052;12.540;2022-09-19T16:18:04;1.42;;;0.80;;
40931;SDS011;36257;46.052;12.540;2022-09-19T16:20:37;2.10;;;0.50;;
40931;SDS011;36257;46.052;12.540;2022-09-19T16:23:04;1.48;;;0.63;;
40931;SDS011;36257;46.052;12.540;2022-09-19T16:25:54;0.70;;;0.55;;
40931;SDS011;36257;46.052;12.540;2022-09-19T16:33:54;1.15;;;0.70;;
40931;SDS011;36257;46.052;12.540;2022-09-19T16:36:42;1.42;;;0.60;;
40931;SDS011;36257;46.052;12.540;2022-09-19T16:39:15;1.00;;;0.70;;
40931;SDS011;36257;46.052;12.540;2022-09-19T16:46:46;1.08;;;0.60;;
40931;SDS011;36257;46.052;12.540;2022-09-19T16:49:19;1.95;;;0.80;;
40931;SDS011;36257;46.052;12.540;2022-09-19T16:51:44;1.98;;;0.85;;
40931;SDS011;36257;46.052;12.540;2022-09-19T16:54:14;3.90;;;0.85;;
40931;SDS011;36257;46.052;12.540;2022-09-19T16:56:45;3.55;;;0.88;;
40931;SDS011;36257;46.052;12.540;2022-09-19T16:59:11;3.10;;;0.60;;
40931;SDS011;36257;46.052;12.540;2022-09-19T17:01:41;3.55;;;1.02;;
40931;SDS011;36257;46.052;12.540;2022-09-19T17:04:14;1.63;;;0.63;;
40931;SDS011;36257;46.052;12.540;2022-09-19T17:06:43;2.97;;;1.08;;
40931;SDS011;36257;46.052;12.540;2022-09-19T17:09:10;1.47;;;0.63;;
40931;SDS011;36257;46.052;12.540;2022-09-19T17:11:36;5.65;;;1.00;;
40931;SDS011;36257;46.052;12.540;2022-09-19T17:14:04;4.28;;;0.98;;
40931;SDS011;36257;46.052;12.540;2022-09-19T17:16:38;2.45;;;0.95;;
40931;SDS011;36257;46.052;12.540;2022-09-19T17:19:04;2.95;;;0.70;;
40931;SDS011;36257;46.052;12.540;2022-09-19T17:21:29;3.45;;;0.80;;
40931;SDS011;36257;46.052;12.540;2022-09-19T17:23:55;1.65;;;0.70;;
40931;SDS011;36257;46.052;12.540;2022-09-19T17:26:20;2.67;;;0.80;;
40931;SDS011;36257;46.052;12.540;2022-09-19T17:28:46;0.65;;;0.65;;
40931;SDS011;36257;46.052;12.540;2022-09-19T17:31:12;1.23;;;0.57;;
40931;SDS011;36257;46.052;12.540;2022-09-19T17:33:38;2.08;;;0.85;;
40931;SDS011;36257;46.052;12.540;2022-09-19T17:36:04;3.55;;;0.82;;
40931;SDS011;36257;46.052;12.540;2022-09-19T17:38:35;0.73;;;0.52;;
40931;SDS011;36257;46.052;12.540;2022-09-19T17:41:02;0.65;;;0.60;;
40931;SDS011;36257;46.052;12.540;2022-09-19T17:43:28;0.88;;;0.63;;
40931;SDS011;36257;46.052;12.540;2022-09-19T17:45:57;1.90;;;0.85;;
40931;SDS011;36257;46.052;12.540;2022-09-19T17:48:25;1.50;;;1.02;;
40931;SDS011;36257;46.052;12.540;2022-09-19T17:50:52;1.60;;;0.70;;
40931;SDS011;36257;46.052;12.540;2022-09-19T17:53:18;1.77;;;0.88;;
40931;SDS011;36257;46.052;12.540;2022-09-19T17:55:43;1.42;;;0.75;;
40931;SDS011;36257;46.052;12.540;2022-09-19T17:58:09;1.00;;;0.68;;
40931;SDS011;36257;46.052;12.540;2022-09-19T18:00:36;1.30;;;1.20;;
40931;SDS011;36257;46.052;12.540;2022-09-19T18:03:02;0.80;;;0.80;;
40931;SDS011;36257;46.052;12.540;2022-09-19T18:05:52;4.03;;;1.10;;
40931;SDS011;36257;46.052;12.540;2022-09-19T18:08:19;1.30;;;0.90;;
40931;SDS011;36257;46.052;12.540;2022-09-19T18:10:45;7.28;;;3.65;;
40931;SDS011;36257;46.052;12.540;2022-09-19T18:13:10;1.38;;;0.90;;
40931;SDS011;36257;46.052;12.540;2022-09-19T18:15:36;4.20;;;1.90;;
40931;SDS011;36257;46.052;12.540;2022-09-19T18:18:02;4.43;;;2.58;;
40931;SDS011;36257;46.052;12.540;2022-09-19T18:20:30;3.42;;;0.80;;
40931;SDS011;36257;46.052;12.540;2022-09-19T18:22:56;1.13;;;0.60;;
40931;SDS011;36257;46.052;12.540;2022-09-19T18:25:22;0.52;;;0.52;;
40931;SDS011;36257;46.052;12.540;2022-09-19T18:27:52;1.10;;;0.35;;
40931;SDS011;36257;46.052;12.540;2022-09-19T18:30:18;0.50;;;0.50;;
40931;SDS011;36257;46.052;12.540;2022-09-19T18:32:45;0.50;;;0.50;;
40931;SDS011;36257;46.052;12.540;2022-09-19T18:35:12;0.55;;;0.45;;
40931;SDS011;36257;46.052;12.540;2022-09-19T18:37:39;0.40;;;0.40;;
40931;SDS011;36257;46.052;12.540;2022-09-19T18:40:08;0.57;;;0.50;;
40931;SDS011;36257;46.052;12.540;2022-09-19T18:42:36;0.60;;;0.40;;
40931;SDS011;36257;46.052;12.540;2022-09-19T18:45:02;0.68;;;0.60;;
40931;SDS011;36257;46.052;12.540;2022-09-19T18:47:31;0.70;;;0.60;;
40931;SDS011;36257;46.052;12.540;2022-09-19T18:49:57;0.57;;;0.57;;
40931;SDS011;36257;46.052;12.540;2022-09-19T18:52:24;2.88;;;0.82;;